Time;durP1;ratioP1;P1;durP2;ratioP2;P2;SDS_P1;SDS_P2;PMS_P1;PMS_P2;Temp;Humidity;BMP_temperature;BMP_pressure;BME280_temperature;BME280_humidity;BME280_pressure;Samples;Min_cycle;Max_cycle;Signal;HPM_P1;HPM_P2
2022/11/02 00:00:18;;;;;;;3.28;1.42;;;;;;;;;;5003062;28;20617;-67
2022/11/02 00:02:44;;;;;;;3.22;1.30;;;;;;;;;;5004270;28;20269;-67
2022/11/02 00:05:11;;;;;;;3.83;1.30;;;;;;;;;;4988091;28;20033;-67
2022/11/02 00:07:37;;;;;;;4.15;1.50;;;;;;;;;;4987413;28;20172;-67
2022/11/02 00:10:03;;;;;;;6.22;1.52;;;;;;;;;;4993654;28;20050;-67
2022/11/02 00:12:29;;;;;;;6.28;1.75;;;;;;;;;;5013443;28;20037;-67
2022/11/02 00:14:55;;;;;;;3.63;1.67;;;;;;;;;;5011308;28;20044;-67
2022/11/02 00:17:22;;;;;;;6.40;1.83;;;;;;;;;;4993727;28;20111;-67
2022/11/02 00:19:48;;;;;;;6.85;1.27;;;;;;;;;;5013548;28;20042;-67
2022/11/02 00:22:14;;;;;;;7.30;1.67;;;;;;;;;;5011713;28;20044;-67
2022/11/02 00:24:40;;;;;;;7.55;1.88;;;;;;;;;;4995546;28;20193;-67
2022/11/02 00:27:06;;;;;;;4.53;0.95;;;;;;;;;;4993773;28;20034;-67
2022/11/02 00:29:33;;;;;;;6.47;1.73;;;;;;;;;;4996088;28;20669;-66
2022/11/02 00:31:59;;;;;;;4.93;1.38;;;;;;;;;;4995724;28;20049;-67
2022/11/02 00:34:25;;;;;;;;;;;;;;;;;;5012039;28;20515;-67
2022/11/02 00:36:51;;;;;;;;;;;;;;;;;;4996883;28;19917;-67
2022/11/02 00:39:17;;;;;;;3.35;1.23;;;;;;;;;;5010170;28;19921;-67
2022/11/02 00:41:43;;;;;;;2.50;0.60;;;;;;;;;;4996136;28;20063;-67
2022/11/02 00:44:09;;;;;;;4.13;1.20;;;;;;;;;;4995538;28;20500;-67
2022/11/02 00:46:35;;;;;;;4.55;1.08;;;;;;;;;;5013109;28;20056;-67
2022/11/02 00:49:01;;;;;;;7.45;1.40;;;;;;;;;;5014883;28;20064;-67
2022/11/02 00:51:27;;;;;;;3.78;1.55;;;;;;;;;;4999359;28;20087;-67
2022/11/02 00:53:52;;;;;;;3.17;1.17;;;;;;;;;;5015007;28;20045;-67
2022/11/02 00:56:18;;;;;;;2.67;0.70;;;;;;;;;;5000736;28;20048;-67
2022/11/02 00:58:44;;;;;;;2.20;0.63;;;;;;;;;;4999464;28;20114;-66
2022/11/02 01:01:10;;;;;;;1.85;0.77;;;;;;;;;;4998349;28;20045;-68
2022/11/02 01:03:36;;;;;;;1.08;0.70;;;;;;;;;;4999460;28;20049;-68
2022/11/02 01:06:10;;;;;;;2.20;0.77;;;;;;;;;;5016852;28;20509;-68
2022/11/02 01:08:36;;;;;;;1.90;1.02;;;;;;;;;;4998664;28;20042;-68
2022/11/02 01:11:15;;;;;;;2.05;0.80;;;;;;;;;;4997265;28;20140;-68
2022/11/02 01:13:41;;;;;;;1.92;0.60;;;;;;;;;;4998818;28;20045;-68
2022/11/02 01:16:08;;;;;;;4.25;0.82;;;;;;;;;;5014448;28;20045;-68
2022/11/02 01:18:34;;;;;;;1.80;0.50;;;;;;;;;;5017712;28;20515;-68
2022/11/02 01:21:00;;;;;;;2.25;0.60;;;;;;;;;;5015795;28;20038;-68
2022/11/02 01:23:26;;;;;;;1.15;0.68;;;;;;;;;;4997504;28;20046;-68
2022/11/02 01:25:52;;;;;;;1.98;0.60;;;;;;;;;;5017429;28;20052;-68
2022/11/02 01:28:18;;;;;;;3.35;0.88;;;;;;;;;;5015339;28;20037;-68
2022/11/02 01:30:47;;;;;;;1.80;0.45;;;;;;;;;;5000095;28;20045;-67
2022/11/02 01:33:13;;;;;;;2.33;0.75;;;;;;;;;;5000123;28;20484;-68
2022/11/02 01:35:39;;;;;;;1.00;0.50;;;;;;;;;;4998996;28;20033;-68
2022/11/02 01:38:05;;;;;;;2.67;0.93;;;;;;;;;;4998318;28;20762;-68
2022/11/02 01:40:34;;;;;;;1.75;0.43;;;;;;;;;;5016108;28;20041;-68
2022/11/02 01:43:00;;;;;;;5.95;1.00;;;;;;;;;;4997807;28;20382;-68
2022/11/02 01:45:27;;;;;;;1.65;0.60;;;;;;;;;;5000305;28;20050;-68
2022/11/02 01:47:53;;;;;;;1.00;0.50;;;;;;;;;;5000080;28;20049;-68
2022/11/02 01:50:21;;;;;;;1.77;0.57;;;;;;;;;;5000082;28;20049;-68
2022/11/02 01:52:47;;;;;;;1.15;0.45;;;;;;;;;;4997820;28;20395;-68
2022/11/02 01:55:22;;;;;;;2.30;0.60;;;;;;;;;;4997570;28;20054;-68
2022/11/02 01:57:53;;;;;;;3.17;0.80;;;;;;;;;;4998245;28;20400;-68
2022/11/02 02:00:19;;;;;;;2.03;0.60;;;;;;;;;;4992725;28;20041;-68
2022/11/02 02:02:48;;;;;;;1.80;0.40;;;;;;;;;;4992545;28;20048;-68
2022/11/02 02:05:16;;;;;;;3.53;0.80;;;;;;;;;;4996586;28;20053;-68
2022/11/02 02:07:43;;;;;;;3.08;0.70;;;;;;;;;;4997644;28;20040;-68
2022/11/02 02:10:09;;;;;;;1.63;0.63;;;;;;;;;;5012797;28;20056;-68
2022/11/02 02:12:36;;;;;;;0.50;0.30;;;;;;;;;;4997948;28;20053;-67
2022/11/02 02:15:02;;;;;;;1.52;0.63;;;;;;;;;;4996406;28;20073;-67
2022/11/02 02:17:37;;;;;;;1.05;0.50;;;;;;;;;;4997895;28;20065;-67
2022/11/02 02:20:03;;;;;;;1.50;0.35;;;;;;;;;;5013042;28;20081;-67
2022/11/02 02:22:41;;;;;;;0.75;0.20;;;;;;;;;;4998112;28;20053;-67
2022/11/02 02:25:26;;;;;;;1.30;0.50;;;;;;;;;;5014074;28;20064;-67
2022/11/02 02:28:13;;;;;;;1.83;0.50;;;;;;;;;;5014847;28;20042;-67
2022/11/02 02:30:49;;;;;;;1.30;0.20;;;;;;;;;;4951767;28;20165;-67
2022/11/02 02:33:21;;;;;;;1.45;0.20;;;;;;;;;;5014145;28;20049;-67
2022/11/02 02:35:52;;;;;;;0.60;0.38;;;;;;;;;;4990860;28;20117;-67
2022/11/02 02:38:20;;;;;;;0.85;0.30;;;;;;;;;;5014774;28;20402;-67
2022/11/02 02:40:53;;;;;;;0.52;0.40;;;;;;;;;;4993176;28;20075;-68
2022/11/02 02:43:19;;;;;;;1.50;0.32;;;;;;;;;;4995329;28;20489;-67
2022/11/02 02:45:55;;;;;;;0.77;0.68;;;;;;;;;;5011652;28;20092;-67
2022/11/02 02:48:23;;;;;;;1.65;1.00;;;;;;;;;;4994524;28;20058;-67
2022/11/02 02:50:50;;;;;;;2.38;0.60;;;;;;;;;;5013870;28;20582;-67
2022/11/02 02:53:18;;;;;;;2.20;0.80;;;;;;;;;;5012965;28;20038;-67
2022/11/02 02:55:45;;;;;;;1.92;0.52;;;;;;;;;;4993726;28;20053;-67
2022/11/02 02:58:15;;;;;;;3.88;1.48;;;;;;;;;;5013586;28;20409;-67
2022/11/02 03:00:41;;;;;;;3.47;1.13;;;;;;;;;;4998451;28;20350;-67
2022/11/02 03:03:08;;;;;;;2.22;0.70;;;;;;;;;;5016810;28;20046;-67
2022/11/02 03:05:35;;;;;;;3.80;0.80;;;;;;;;;;4993980;28;20057;-67
2022/11/02 03:08:06;;;;;;;2.55;1.15;;;;;;;;;;4992582;28;20046;-67
2022/11/02 03:10:34;;;;;;;2.42;0.88;;;;;;;;;;4993626;28;20133;-67
2022/11/02 03:13:00;;;;;;;5.25;1.42;;;;;;;;;;4995086;28;20041;-67
2022/11/02 03:15:38;;;;;;;3.75;0.95;;;;;;;;;;5011311;28;20111;-67
2022/11/02 03:18:13;;;;;;;2.05;1.00;;;;;;;;;;5011546;28;20105;-66
2022/11/02 03:20:58;;;;;;;1.35;0.55;;;;;;;;;;5009855;28;20564;-66
2022/11/02 03:23:47;;;;;;;1.33;0.85;;;;;;;;;;5011640;28;20116;-66
2022/11/02 03:26:35;;;;;;;1.50;0.60;;;;;;;;;;5012584;28;20042;-67
2022/11/02 03:29:07;;;;;;;2.17;0.60;;;;;;;;;;5010712;28;20087;-67
2022/11/02 03:31:36;;;;;;;1.73;0.73;;;;;;;;;;4993453;28;20619;-66
2022/11/02 03:34:22;;;;;;;2.05;0.82;;;;;;;;;;4991391;28;20755;-66
2022/11/02 03:36:53;;;;;;;1.40;0.50;;;;;;;;;;4993049;28;20108;-67
2022/11/02 03:39:25;;;;;;;1.95;0.45;;;;;;;;;;4993551;28;20405;-67
2022/11/02 03:41:52;;;;;;;2.92;0.95;;;;;;;;;;4996248;28;20037;-66
2022/11/02 03:44:21;;;;;;;3.55;0.70;;;;;;;;;;4994451;28;20160;-66
2022/11/02 03:46:48;;;;;;;1.45;0.65;;;;;;;;;;5012528;28;20041;-66
2022/11/02 03:49:16;;;;;;;3.97;0.65;;;;;;;;;;4993391;28;20073;-67
2022/11/02 03:51:44;;;;;;;4.60;1.38;;;;;;;;;;4990170;28;20439;-66
2022/11/02 03:54:10;;;;;;;4.57;0.80;;;;;;;;;;5013313;28;20056;-66
2022/11/02 03:56:42;;;;;;;7.80;1.33;;;;;;;;;;4993568;28;20041;-66
2022/11/02 03:59:08;;;;;;;5.15;1.00;;;;;;;;;;5010060;28;20073;-66
2022/11/02 04:01:38;;;;;;;2.90;1.23;;;;;;;;;;5013711;28;20045;-66
2022/11/02 04:04:04;;;;;;;6.00;1.50;;;;;;;;;;4997231;28;20123;-67
2022/11/02 04:06:31;;;;;;;6.22;1.48;;;;;;;;;;5011043;28;20042;-66
2022/11/02 04:08:57;;;;;;;3.58;1.08;;;;;;;;;;5007996;28;20080;-67
2022/11/02 04:19:26;;;;;;;3.95;0.90;;;;;;;;;;5009867;28;20101;-67
2022/11/02 04:19:38;;;;;;;3.55;1.10;;;;;;;;;;5014352;28;20061;-66
2022/11/02 04:27:34;;;;;;;5.28;1.40;;;;;;;;;;4985983;28;20132;-67
2022/11/02 04:30:00;;;;;;;13.13;1.88;;;;;;;;;;4989111;28;20457;-66
2022/11/02 04:35:11;;;;;;;1.92;0.80;;;;;;;;;;4985723;28;20045;-66
2022/11/02 04:40:25;;;;;;;5.47;1.17;;;;;;;;;;4992251;28;20054;-66
2022/11/02 04:42:51;;;;;;;9.57;1.42;;;;;;;;;;5011815;28;20180;-66
2022/11/02 04:45:17;;;;;;;5.75;1.30;;;;;;;;;;5011501;28;20132;-66
2022/11/02 04:47:43;;;;;;;7.25;1.38;;;;;;;;;;4995942;28;20320;-66
2022/11/02 04:50:10;;;;;;;4.78;1.00;;;;;;;;;;5008586;28;20088;-66
2022/11/02 04:52:36;;;;;;;2.53;0.80;;;;;;;;;;4996013;28;20125;-66
2022/11/02 04:55:02;;;;;;;6.95;1.60;;;;;;;;;;5010757;28;20129;-66
2022/11/02 04:57:28;;;;;;;3.15;1.20;;;;;;;;;;5009595;28;20045;-66
2022/11/02 04:59:54;;;;;;;6.40;1.13;;;;;;;;;;5010350;28;20041;-66
2022/11/02 05:02:20;;;;;;;2.30;0.77;;;;;;;;;;4992419;28;20547;-66
2022/11/02 05:04:46;;;;;;;3.95;0.80;;;;;;;;;;5005015;28;20044;-66
2022/11/02 05:07:12;;;;;;;4.75;1.10;;;;;;;;;;4994427;28;20056;-66
2022/11/02 05:09:41;;;;;;;5.90;1.20;;;;;;;;;;5011323;28;21716;-66
2022/11/02 05:12:07;;;;;;;5.40;1.23;;;;;;;;;;5009915;28;20046;-66
2022/11/02 05:14:33;;;;;;;6.10;1.83;;;;;;;;;;4990393;28;20093;-66
2022/11/02 05:16:59;;;;;;;7.05;1.02;;;;;;;;;;5008930;28;20568;-66
2022/11/02 05:19:25;;;;;;;5.90;1.48;;;;;;;;;;4992380;28;20058;-66
2022/11/02 05:21:51;;;;;;;3.70;1.10;;;;;;;;;;4990134;28;20053;-66
2022/11/02 05:24:17;;;;;;;4.40;1.13;;;;;;;;;;5010031;28;20060;-66
2022/11/02 05:26:43;;;;;;;3.58;1.13;;;;;;;;;;5012115;28;20512;-66
2022/11/02 05:29:09;;;;;;;4.07;1.30;;;;;;;;;;4990935;28;20408;-66
2022/11/02 05:31:35;;;;;;;5.15;1.38;;;;;;;;;;5005812;28;20042;-66
2022/11/02 05:34:01;;;;;;;4.20;1.20;;;;;;;;;;4990781;28;20041;-66
2022/11/02 05:36:27;;;;;;;5.88;1.55;;;;;;;;;;5012301;28;20038;-66
2022/11/02 05:38:54;;;;;;;4.47;1.30;;;;;;;;;;5012509;28;20506;-66
2022/11/02 05:41:20;;;;;;;2.30;0.80;;;;;;;;;;4996552;28;20127;-66
2022/11/02 05:43:46;;;;;;;5.72;1.58;;;;;;;;;;5015050;28;20048;-67
2022/11/02 05:46:15;;;;;;;3.70;2.03;;;;;;;;;;4994297;28;20045;-66
2022/11/02 05:48:42;;;;;;;8.68;2.13;;;;;;;;;;4993113;28;20058;-67
2022/11/02 05:51:09;;;;;;;5.53;1.77;;;;;;;;;;4995144;28;20077;-66
2022/11/02 05:53:37;;;;;;;6.78;1.77;;;;;;;;;;4998295;28;20052;-66
2022/11/02 05:56:04;;;;;;;5.47;1.70;;;;;;;;;;5009945;28;20041;-66
2022/11/02 05:58:30;;;;;;;4.30;1.67;;;;;;;;;;5013174;28;20045;-66
2022/11/02 06:00:59;;;;;;;7.07;1.92;;;;;;;;;;5013551;28;20053;-66
2022/11/02 06:03:25;;;;;;;4.25;1.40;;;;;;;;;;5014654;28;20088;-66
2022/11/02 06:06:02;;;;;;;4.40;1.42;;;;;;;;;;4992838;28;20085;-66
2022/11/02 06:08:30;;;;;;;5.38;1.58;;;;;;;;;;4993889;28;20048;-66
2022/11/02 06:10:56;;;;;;;5.28;1.23;;;;;;;;;;5009890;28;20042;-66
2022/11/02 06:13:22;;;;;;;5.28;1.40;;;;;;;;;;4996211;28;20045;-66
2022/11/02 06:15:48;;;;;;;6.75;1.83;;;;;;;;;;4995983;28;20424;-66
2022/11/02 06:18:14;;;;;;;5.88;1.80;;;;;;;;;;5012794;28;20057;-66
2022/11/02 06:20:40;;;;;;;2.65;0.90;;;;;;;;;;4992702;28;20060;-66
2022/11/02 06:23:06;;;;;;;9.68;1.83;;;;;;;;;;5013786;28;20053;-66
2022/11/02 06:25:32;;;;;;;5.05;1.25;;;;;;;;;;4996541;28;20045;-66
2022/11/02 06:27:58;;;;;;;11.52;2.00;;;;;;;;;;5013713;28;20049;-66
2022/11/02 06:30:24;;;;;;;6.43;1.70;;;;;;;;;;4993651;28;20049;-67
2022/11/02 06:32:51;;;;;;;5.30;1.85;;;;;;;;;;5014962;28;20574;-66
2022/11/02 06:35:18;;;;;;;6.50;1.75;;;;;;;;;;5000702;28;20271;-66
2022/11/02 06:37:45;;;;;;;5.43;1.50;;;;;;;;;;5012788;28;20041;-66
2022/11/02 06:40:11;;;;;;;5.70;1.33;;;;;;;;;;5013863;28;20041;-66
2022/11/02 06:42:38;;;;;;;5.63;2.13;;;;;;;;;;5012005;28;20045;-66
2022/11/02 06:45:04;;;;;;;6.65;1.35;;;;;;;;;;4991868;28;20068;-66
2022/11/02 06:47:33;;;;;;;5.35;1.58;;;;;;;;;;5007347;28;20048;-67
2022/11/02 06:49:59;;;;;;;10.80;1.80;;;;;;;;;;5008899;28;20129;-66
2022/11/02 06:52:26;;;;;;;6.20;1.33;;;;;;;;;;4992524;28;20104;-66
2022/11/02 06:54:52;;;;;;;4.78;1.27;;;;;;;;;;4991979;28;20136;-67
2022/11/02 06:57:18;;;;;;;4.32;1.17;;;;;;;;;;4993306;28;20499;-67
2022/11/02 06:59:44;;;;;;;4.10;1.27;;;;;;;;;;4992577;28;20068;-66
2022/11/02 07:02:10;;;;;;;5.82;1.40;;;;;;;;;;4992509;28;20488;-66
2022/11/02 07:04:36;;;;;;;5.82;2.05;;;;;;;;;;5008585;28;20053;-66
2022/11/02 07:07:02;;;;;;;7.15;1.63;;;;;;;;;;4992452;28;20126;-67
2022/11/02 07:09:28;;;;;;;7.03;1.55;;;;;;;;;;4990436;28;20188;-66
2022/11/02 07:11:54;;;;;;;7.10;1.88;;;;;;;;;;4990044;28;20042;-67
2022/11/02 07:14:20;;;;;;;7.80;1.88;;;;;;;;;;5006031;28;20092;-67
2022/11/02 07:16:46;;;;;;;3.53;1.17;;;;;;;;;;5007454;28;20054;-66
2022/11/02 07:19:12;;;;;;;4.00;1.00;;;;;;;;;;5010513;28;20048;-66
2022/11/02 07:21:38;;;;;;;2.92;0.85;;;;;;;;;;4993342;28;20100;-66
2022/11/02 07:24:04;;;;;;;4.10;1.23;;;;;;;;;;4985187;28;20062;-66
2022/11/02 07:26:31;;;;;;;12.13;4.63;;;;;;;;;;5010834;28;20041;-66
2022/11/02 07:28:57;;;;;;;4.78;2.38;;;;;;;;;;4993426;28;20041;-66
2022/11/02 07:31:23;;;;;;;3.50;0.90;;;;;;;;;;5005107;28;20107;-66
2022/11/02 07:33:49;;;;;;;3.17;1.05;;;;;;;;;;5006408;28;20041;-66
2022/11/02 07:36:15;;;;;;;4.45;1.40;;;;;;;;;;4993453;28;20055;-67
2022/11/02 07:38:41;;;;;;;5.40;1.38;;;;;;;;;;4996052;28;20605;-66
2022/11/02 07:41:07;;;;;;;4.05;1.08;;;;;;;;;;4992819;28;20052;-67
2022/11/02 07:43:33;;;;;;;5.40;1.17;;;;;;;;;;4993862;28;20054;-67
2022/11/02 07:46:01;;;;;;;3.50;1.30;;;;;;;;;;5005651;28;20041;-67
2022/11/02 07:48:27;;;;;;;8.07;1.38;;;;;;;;;;4990481;28;20049;-67
2022/11/02 07:50:53;;;;;;;3.53;0.85;;;;;;;;;;4993830;28;20038;-66
2022/11/02 07:53:19;;;;;;;4.18;1.13;;;;;;;;;;5013218;28;20038;-66
2022/11/02 07:55:45;;;;;;;4.60;0.88;;;;;;;;;;5012857;28;20299;-67
2022/11/02 07:58:14;;;;;;;8.90;1.85;;;;;;;;;;4992624;28;20133;-67
2022/11/02 08:00:40;;;;;;;4.75;1.20;;;;;;;;;;5002553;28;20053;-67
2022/11/02 08:03:07;;;;;;;2.83;1.13;;;;;;;;;;4992343;28;20042;-66
2022/11/02 08:05:34;;;;;;;7.93;1.05;;;;;;;;;;5012155;28;20157;-67
2022/11/02 08:08:01;;;;;;;4.55;1.33;;;;;;;;;;4995720;28;20525;-67
2022/11/02 08:10:28;;;;;;;4.32;1.17;;;;;;;;;;4996885;28;20136;-67
2022/11/02 08:12:55;;;;;;;4.07;1.00;;;;;;;;;;5012569;28;20432;-67
2022/11/02 08:15:21;;;;;;;3.55;1.13;;;;;;;;;;5010908;28;20127;-66
2022/11/02 08:17:47;;;;;;;5.13;1.52;;;;;;;;;;4989300;28;20078;-67
2022/11/02 08:20:13;;;;;;;9.10;2.08;;;;;;;;;;4988904;28;20054;-67
2022/11/02 08:22:40;;;;;;;4.05;1.13;;;;;;;;;;4992840;28;20045;-67
2022/11/02 08:25:07;;;;;;;2.53;0.60;;;;;;;;;;5008570;28;20361;-67
2022/11/02 08:27:33;;;;;;;3.13;0.98;;;;;;;;;;4988051;28;20898;-67
2022/11/02 08:29:59;;;;;;;7.70;1.48;;;;;;;;;;4992614;28;20042;-67
2022/11/02 08:32:25;;;;;;;2.80;1.13;;;;;;;;;;5007526;28;20421;-67
2022/11/02 08:34:51;;;;;;;2.97;0.90;;;;;;;;;;4997916;28;20046;-67
2022/11/02 08:37:17;;;;;;;4.55;1.63;;;;;;;;;;4992981;28;20165;-67
2022/11/02 08:39:43;;;;;;;6.10;1.40;;;;;;;;;;4995900;28;20046;-67
2022/11/02 08:42:09;;;;;;;4.60;1.20;;;;;;;;;;4992049;28;20166;-67
2022/11/02 08:44:35;;;;;;;7.07;1.90;;;;;;;;;;5009824;28;20467;-69
2022/11/02 08:47:01;;;;;;;6.18;1.35;;;;;;;;;;4985564;28;20042;-73
2022/11/02 08:49:27;;;;;;;4.13;1.40;;;;;;;;;;5008811;28;20042;-71
2022/11/02 08:51:53;;;;;;;8.90;1.70;;;;;;;;;;5011399;28;20404;-69
2022/11/02 08:54:19;;;;;;;2.88;1.15;;;;;;;;;;5018364;28;20153;-69
2022/11/02 08:56:45;;;;;;;5.30;1.38;;;;;;;;;;5013606;28;20095;-74
2022/11/02 08:59:11;;;;;;;5.40;1.60;;;;;;;;;;5007296;28;20068;-67
2022/11/02 09:01:38;;;;;;;2.97;1.10;;;;;;;;;;5011040;28;20041;-67
2022/11/02 09:04:04;;;;;;;3.63;1.27;;;;;;;;;;5006038;28;20471;-68
2022/11/02 09:06:30;;;;;;;7.35;1.05;;;;;;;;;;5010940;28;20057;-67
2022/11/02 09:08:56;;;;;;;5.85;1.15;;;;;;;;;;4989660;28;20042;-67
2022/11/02 09:11:23;;;;;;;6.22;1.20;;;;;;;;;;5015977;28;20045;-66
2022/11/02 09:13:49;;;;;;;5.93;1.73;;;;;;;;;;4994334;28;20069;-67
2022/11/02 09:16:15;;;;;;;8.05;1.80;;;;;;;;;;4990795;28;20518;-67
2022/11/02 09:18:41;;;;;;;6.88;1.83;;;;;;;;;;5012971;28;20038;-67
2022/11/02 09:21:07;;;;;;;7.35;2.45;;;;;;;;;;4996829;28;20531;-67
2022/11/02 09:23:33;;;;;;;6.63;1.30;;;;;;;;;;5008290;28;20522;-67
2022/11/02 09:26:00;;;;;;;8.70;2.08;;;;;;;;;;5012891;28;20683;-67
2022/11/02 09:28:26;;;;;;;6.28;1.77;;;;;;;;;;4999762;28;20160;-67
2022/11/02 09:30:52;;;;;;;9.15;1.65;;;;;;;;;;4996824;28;20045;-67
2022/11/02 09:33:18;;;;;;;7.47;1.80;;;;;;;;;;4990875;28;20042;-67
2022/11/02 09:35:45;;;;;;;6.47;1.48;;;;;;;;;;4989100;28;20046;-67
2022/11/02 09:38:11;;;;;;;6.28;1.35;;;;;;;;;;5006781;28;20042;-67
2022/11/02 09:40:39;;;;;;;17.30;3.47;;;;;;;;;;4992223;28;20523;-67
2022/11/02 09:43:05;;;;;;;6.45;1.52;;;;;;;;;;5007156;28;20042;-68
2022/11/02 09:45:33;;;;;;;6.20;1.67;;;;;;;;;;4989245;28;20397;-67
2022/11/02 09:48:07;;;;;;;4.13;1.80;;;;;;;;;;4990528;28;20463;-66
2022/11/02 09:51:00;;;;;;;7.22;1.65;;;;;;;;;;4994633;28;20117;-67
2022/11/02 09:53:31;;;;;;;7.38;1.58;;;;;;;;;;4981506;28;20138;-67
2022/11/02 09:55:59;;;;;;;10.23;2.55;;;;;;;;;;4991527;28;20361;-67
2022/11/02 09:58:29;;;;;;;8.15;1.70;;;;;;;;;;5005016;28;20383;-67
2022/11/02 10:00:56;;;;;;;3.33;1.38;;;;;;;;;;4989270;28;20112;-68
2022/11/02 10:03:32;;;;;;;5.70;1.30;;;;;;;;;;5002668;28;20435;-67
2022/11/02 10:06:16;;;;;;;8.23;1.95;;;;;;;;;;4991276;28;20045;-66
2022/11/02 10:08:45;;;;;;;6.28;1.50;;;;;;;;;;5007596;28;20085;-67
2022/11/02 10:11:23;;;;;;;6.55;1.80;;;;;;;;;;5007967;28;20062;-67
2022/11/02 10:13:52;;;;;;;7.20;1.50;;;;;;;;;;5008404;28;20038;-67
2022/11/02 10:16:17;;;;;;;6.18;1.65;;;;;;;;;;4993131;28;20254;-67
2022/11/02 10:18:48;;;;;;;3.83;1.25;;;;;;;;;;4988668;28;20042;-67
2022/11/02 10:21:19;;;;;;;5.78;1.52;;;;;;;;;;5012392;28;20425;-67
2022/11/02 10:23:52;;;;;;;9.25;1.88;;;;;;;;;;4985811;28;20057;-68
2022/11/02 10:26:29;;;;;;;8.27;1.80;;;;;;;;;;4983968;28;20045;-68
2022/11/02 10:29:11;;;;;;;5.93;2.08;;;;;;;;;;4996579;28;20401;-67
2022/11/02 10:31:37;;;;;;;9.30;1.67;;;;;;;;;;4997791;28;20042;-67
2022/11/02 10:34:22;;;;;;;4.97;1.38;;;;;;;;;;4978224;28;20123;-67
2022/11/02 10:37:07;;;;;;;5.35;1.67;;;;;;;;;;4979291;28;20042;-67
2022/11/02 10:39:39;;;;;;;5.88;1.92;;;;;;;;;;4981871;28;20038;-67
2022/11/02 10:42:24;;;;;;;5.40;1.52;;;;;;;;;;4999200;28;20049;-66
2022/11/02 10:45:01;;;;;;;3.00;0.98;;;;;;;;;;5009200;28;20397;-67
2022/11/02 10:47:30;;;;;;;5.50;1.30;;;;;;;;;;5004522;28;20044;-67
2022/11/02 10:49:58;;;;;;;4.40;1.15;;;;;;;;;;5004834;28;20038;-67
2022/11/02 10:52:25;;;;;;;4.80;1.20;;;;;;;;;;4988371;28;20049;-67
2022/11/02 10:54:52;;;;;;;5.32;1.35;;;;;;;;;;4988059;28;20044;-67
2022/11/02 10:57:23;;;;;;;5.72;1.42;;;;;;;;;;5003812;28;20409;-67
2022/11/02 11:00:07;;;;;;;4.28;1.10;;;;;;;;;;4984804;28;20133;-67
2022/11/02 11:02:33;;;;;;;6.35;1.73;;;;;;;;;;4991103;28;20045;-67
2022/11/02 11:05:13;;;;;;;4.75;1.42;;;;;;;;;;5006608;28;20065;-66
2022/11/02 11:07:43;;;;;;;4.18;1.15;;;;;;;;;;4986747;28;20564;-71
2022/11/02 11:10:14;;;;;;;3.55;1.42;;;;;;;;;;4989609;28;20090;-72
2022/11/02 11:12:42;;;;;;;6.43;1.48;;;;;;;;;;4995444;28;20052;-68
2022/11/02 11:15:19;;;;;;;2.58;1.10;;;;;;;;;;4989630;28;20069;-69
2022/11/02 11:17:45;;;;;;;4.32;1.45;;;;;;;;;;5007140;28;20060;-69
2022/11/02 11:20:31;;;;;;;8.90;1.45;;;;;;;;;;4990565;28;20065;-69
2022/11/02 11:23:09;;;;;;;2.22;1.08;;;;;;;;;;4989670;28;20050;-69
2022/11/02 11:25:35;;;;;;;4.32;1.33;;;;;;;;;;4990171;28;20073;-69
2022/11/02 11:28:01;;;;;;;5.43;1.00;;;;;;;;;;5019381;28;20045;-69
2022/11/02 11:30:27;;;;;;;2.88;1.02;;;;;;;;;;5007303;28;20053;-69
2022/11/02 11:32:54;;;;;;;8.50;1.70;;;;;;;;;;5007492;28;20049;-69
2022/11/02 11:35:21;;;;;;;4.97;1.45;;;;;;;;;;5025386;28;20484;-69
2022/11/02 11:37:57;;;;;;;6.60;1.38;;;;;;;;;;5008880;28;20068;-69
2022/11/02 11:40:24;;;;;;;1.98;0.90;;;;;;;;;;5026339;28;20427;-67
2022/11/02 11:42:51;;;;;;;6.13;1.17;;;;;;;;;;5025827;28;20477;-68
2022/11/02 11:45:21;;;;;;;6.35;1.00;;;;;;;;;;5025918;28;20041;-67
2022/11/02 11:47:51;;;;;;;5.75;1.45;;;;;;;;;;5008586;28;20045;-67
2022/11/02 11:50:18;;;;;;;5.60;1.17;;;;;;;;;;5007701;28;20491;-67
2022/11/02 11:52:44;;;;;;;4.32;1.17;;;;;;;;;;5008405;28;20093;-68
2022/11/02 11:55:21;;;;;;;6.20;1.33;;;;;;;;;;5027001;28;20056;-69
2022/11/02 11:58:03;;;;;;;5.13;1.83;;;;;;;;;;5008379;28;20049;-67
2022/11/02 12:00:29;;;;;;;4.53;1.35;;;;;;;;;;5008132;28;20042;-67
2022/11/02 12:03:21;;;;;;;3.42;0.98;;;;;;;;;;5008443;28;20049;-67
2022/11/02 12:05:56;;;;;;;3.60;1.02;;;;;;;;;;5022076;28;20049;-67
2022/11/02 12:08:22;;;;;;;6.00;1.30;;;;;;;;;;5008224;28;20076;-67
2022/11/02 12:10:58;;;;;;;4.38;1.05;;;;;;;;;;5025451;28;20057;-67
2022/11/02 12:13:24;;;;;;;5.80;1.55;;;;;;;;;;5007594;28;20056;-68
2022/11/02 12:15:53;;;;;;;5.78;1.10;;;;;;;;;;5008235;28;20053;-68
2022/11/02 12:18:31;;;;;;;4.85;1.00;;;;;;;;;;5007494;28;20495;-67
2022/11/02 12:21:09;;;;;;;5.20;1.00;;;;;;;;;;5008007;28;20050;-67
2022/11/02 12:23:59;;;;;;;3.83;1.00;;;;;;;;;;5008071;28;20050;-67
2022/11/02 12:26:49;;;;;;;4.07;1.17;;;;;;;;;;5007317;28;20137;-67
2022/11/02 12:29:19;;;;;;;4.00;1.25;;;;;;;;;;5025693;28;20045;-67
2022/11/02 12:31:45;;;;;;;4.97;1.30;;;;;;;;;;5025366;28;20052;-69
2022/11/02 12:34:21;;;;;;;4.32;1.13;;;;;;;;;;5008572;28;20130;-67
2022/11/02 12:37:10;;;;;;;4.60;1.08;;;;;;;;;;5025650;28;20045;-68
2022/11/02 12:40:00;;;;;;;7.32;1.70;;;;;;;;;;4996675;28;20053;-67
2022/11/02 12:42:31;;;;;;;6.85;1.55;;;;;;;;;;5007213;28;20045;-67
2022/11/02 12:45:16;;;;;;;5.97;1.58;;;;;;;;;;5007267;28;20476;-68
2022/11/02 12:47:45;;;;;;;6.05;1.30;;;;;;;;;;5007957;28;20076;-67
2022/11/02 12:50:34;;;;;;;6.05;1.10;;;;;;;;;;5008561;28;20061;-67
2022/11/02 12:53:06;;;;;;;5.47;1.60;;;;;;;;;;4988192;28;20484;-67
2022/11/02 12:55:34;;;;;;;7.03;1.42;;;;;;;;;;5007637;28;20338;-70
2022/11/02 12:58:06;;;;;;;3.13;1.15;;;;;;;;;;5007613;28;20040;-67
2022/11/02 13:00:35;;;;;;;4.82;1.33;;;;;;;;;;5024918;28;20396;-67
2022/11/02 13:03:16;;;;;;;7.82;1.85;;;;;;;;;;5007805;28;20057;-67
2022/11/02 13:05:44;;;;;;;4.53;1.40;;;;;;;;;;5007792;28;20049;-68
2022/11/02 13:08:13;;;;;;;3.75;0.98;;;;;;;;;;5024002;28;20435;-67
2022/11/02 13:10:45;;;;;;;5.30;1.48;;;;;;;;;;5006269;28;20045;-67
2022/11/02 13:13:15;;;;;;;6.13;1.58;;;;;;;;;;5007821;28;20046;-67
2022/11/02 13:15:42;;;;;;;4.63;1.33;;;;;;;;;;4982028;28;20058;-68
2022/11/02 13:18:21;;;;;;;5.05;1.42;;;;;;;;;;4989436;28;20055;-67
2022/11/02 13:20:49;;;;;;;4.15;1.60;;;;;;;;;;5013036;28;20091;-68
2022/11/02 13:23:25;;;;;;;5.90;1.48;;;;;;;;;;4980369;28;20065;-68
2022/11/02 13:25:53;;;;;;;5.18;1.30;;;;;;;;;;4978831;28;20050;-67
2022/11/02 13:28:41;;;;;;;6.18;1.50;;;;;;;;;;4969707;28;20406;-68
2022/11/02 13:31:11;;;;;;;2.92;1.30;;;;;;;;;;4973590;28;20085;-68
2022/11/02 13:33:41;;;;;;;4.07;1.23;;;;;;;;;;4976178;28;20129;-67
2022/11/02 13:36:08;;;;;;;7.72;2.00;;;;;;;;;;4977977;28;20065;-67
2022/11/02 13:38:36;;;;;;;4.55;1.00;;;;;;;;;;4978494;28;20044;-67
2022/11/02 13:41:08;;;;;;;6.93;1.63;;;;;;;;;;4973904;28;20267;-67
2022/11/02 13:43:40;;;;;;;5.50;1.17;;;;;;;;;;4994398;28;20509;-67
2022/11/02 13:46:15;;;;;;;5.78;1.70;;;;;;;;;;4994932;28;20054;-67
2022/11/02 13:48:52;;;;;;;7.15;1.65;;;;;;;;;;4978120;28;20056;-67
2022/11/02 13:51:27;;;;;;;4.28;1.10;;;;;;;;;;4990880;28;20050;-67
2022/11/02 13:54:13;;;;;;;4.38;1.38;;;;;;;;;;4979151;28;20034;-68
2022/11/02 13:56:40;;;;;;;7.75;1.92;;;;;;;;;;4996393;28;20041;-66
2022/11/02 13:59:17;;;;;;;3.78;1.30;;;;;;;;;;4984392;28;20429;-67
2022/11/02 14:01:44;;;;;;;3.70;0.98;;;;;;;;;;5001649;28;20532;-67
2022/11/02 14:04:12;;;;;;;5.70;1.30;;;;;;;;;;5003306;28;20045;-67
2022/11/02 14:06:44;;;;;;;6.00;1.25;;;;;;;;;;4986013;28;20141;-66
2022/11/02 14:09:18;;;;;;;6.28;1.42;;;;;;;;;;4991644;28;20053;-66
2022/11/02 14:11:44;;;;;;;7.97;1.33;;;;;;;;;;4982019;28;20053;-67
2022/11/02 14:14:10;;;;;;;6.50;1.90;;;;;;;;;;4981106;28;20530;-67
2022/11/02 14:16:45;;;;;;;3.40;0.93;;;;;;;;;;4988942;28;20065;-67
2022/11/02 14:19:17;;;;;;;5.32;1.23;;;;;;;;;;4981939;28;20046;-69
2022/11/02 14:21:58;;;;;;;7.65;1.33;;;;;;;;;;5009540;28;20128;-67
2022/11/02 14:24:34;;;;;;;3.72;1.23;;;;;;;;;;4986065;28;20152;-66
2022/11/02 14:27:23;;;;;;;7.53;1.40;;;;;;;;;;4989902;28;20077;-67
2022/11/02 14:29:51;;;;;;;6.60;1.77;;;;;;;;;;5002036;28;20046;-67
2022/11/02 14:32:20;;;;;;;2.30;1.13;;;;;;;;;;5007110;28;20049;-67
2022/11/02 14:35:05;;;;;;;5.65;0.93;;;;;;;;;;4976848;28;20099;-67
2022/11/02 14:37:51;;;;;;;4.25;1.20;;;;;;;;;;4999649;28;20046;-67
2022/11/02 14:40:28;;;;;;;8.23;1.85;;;;;;;;;;4982385;28;20096;-74
2022/11/02 14:42:54;;;;;;;6.93;1.80;;;;;;;;;;4985420;28;20432;-69
2022/11/02 14:45:33;;;;;;;6.55;1.48;;;;;;;;;;4979856;28;20049;-70
2022/11/02 14:48:00;;;;;;;6.65;1.55;;;;;;;;;;4987771;28;20042;-69
2022/11/02 14:50:26;;;;;;;8.00;1.77;;;;;;;;;;4995635;28;20074;-69
2022/11/02 14:53:03;;;;;;;5.00;1.45;;;;;;;;;;4999745;28;20093;-69
2022/11/02 14:55:33;;;;;;;2.85;0.75;;;;;;;;;;4980306;28;20049;-68
2022/11/02 14:58:05;;;;;;;2.75;0.98;;;;;;;;;;4991555;28;20058;-71
2022/11/02 15:00:54;;;;;;;2.67;0.95;;;;;;;;;;4984857;28;20037;-71
2022/11/02 15:03:24;;;;;;;3.42;0.95;;;;;;;;;;4969113;28;20230;-70
2022/11/02 15:06:04;;;;;;;3.97;1.55;;;;;;;;;;4986468;28;20050;-70
2022/11/02 15:08:31;;;;;;;4.75;0.90;;;;;;;;;;4984836;28;20050;-71
2022/11/02 15:10:57;;;;;;;5.20;1.38;;;;;;;;;;4985473;28;20107;-71
2022/11/02 15:13:33;;;;;;;6.03;1.50;;;;;;;;;;5000933;28;20420;-71